Time;durP1;ratioP1;P1;durP2;ratioP2;P2;SDS_P1;SDS_P2;PMS_P1;PMS_P2;Temp;Humidity;BMP_temperature;BMP_pressure;BME280_temperature;BME280_humidity;BME280_pressure;Samples;Min_cycle;Max_cycle;Signal;HPM_P1;HPM_P2
2023/02/12 00:01:27;;;;;;;6.45;2.22;;;;;;;-5.36;62.51;102363.06;1885983;76;21558;-53
2023/02/12 00:03:56;;;;;;;6.17;3.55;;;;;;;-5.35;62.44;102366.09;1886198;76;21104;-50
2023/02/12 00:06:25;;;;;;;9.70;3.75;;;;;;;-5.32;62.47;102362.41;1885997;76;21108;-51
2023/02/12 00:08:55;;;;;;;8.58;2.52;;;;;;;-5.33;62.46;102352.55;1883481;76;21129;-54
2023/02/12 00:11:27;;;;;;;3.92;1.65;;;;;;;-5.35;62.57;102355.83;1883415;75;21030;-51
2023/02/12 00:13:57;;;;;;;9.83;3.12;;;;;;;-5.34;62.59;102358.48;1883250;76;21034;-57
2023/02/12 00:16:28;;;;;;;8.15;2.25;;;;;;;-5.29;62.55;102345.89;1883322;76;21164;-54
2023/02/12 00:18:58;;;;;;;8.83;4.03;;;;;;;-5.23;62.59;102346.20;1883497;76;21091;-55
2023/02/12 00:21:27;;;;;;;5.05;2.35;;;;;;;-5.16;62.49;102345.71;1883359;76;21532;-60
2023/02/12 00:23:56;;;;;;;4.50;3.10;;;;;;;-5.09;62.47;102339.17;1883386;76;21441;-52
2023/02/12 00:26:25;;;;;;;7.80;3.27;;;;;;;-5.07;62.61;102332.05;1883307;76;21131;-51
2023/02/12 00:28:55;;;;;;;3.85;1.47;;;;;;;-5.06;62.69;102323.93;1883355;76;21187;-50
2023/02/12 00:31:26;;;;;;;8.88;4.10;;;;;;;-5.06;62.74;102326.09;1883367;76;21547;-54
2023/02/12 00:33:59;;;;;;;13.08;4.55;;;;;;;-5.07;62.85;102323.06;1883663;76;21538;-49
2023/02/12 00:36:30;;;;;;;9.15;4.30;;;;;;;-5.10;63.30;102308.77;1885107;76;21112;-54
2023/02/12 00:39:00;;;;;;;2.42;2.10;;;;;;;-5.04;63.01;102303.92;1870375;76;21058;-50
2023/02/12 00:41:29;;;;;;;18.80;4.15;;;;;;;-5.04;63.01;102303.92;1888647;76;21473;-51
2023/02/12 00:43:58;;;;;;;5.35;2.98;;;;;;;-4.97;62.95;102305.53;1888567;76;21116;-51
2023/02/12 00:46:27;;;;;;;5.95;2.42;;;;;;;-4.90;62.88;102301.18;1888790;76;21074;-51
2023/02/12 00:48:56;;;;;;;1.90;1.62;;;;;;;-4.83;62.82;102294.25;1885840;76;21054;-50
2023/02/12 00:51:26;;;;;;;4.12;1.98;;;;;;;-4.74;62.82;102295.08;1888575;76;21058;-52
2023/02/12 00:53:54;;;;;;;4.35;2.62;;;;;;;-4.68;62.78;102294.98;1856635;77;21235;-51
2023/02/12 00:56:23;;;;;;;5.15;3.67;;;;;;;-4.62;62.71;102292.23;1867521;76;21070;-51
2023/02/12 00:58:52;;;;;;;9.08;3.47;;;;;;;-4.58;62.70;102288.59;1888564;76;21050;-50
2023/02/12 01:01:20;;;;;;;9.40;3.45;;;;;;;-4.54;62.66;102288.33;1888648;76;21034;-51
2023/02/12 01:03:49;;;;;;;5.17;2.42;;;;;;;-4.47;62.61;102281.39;1888655;76;21038;-51
2023/02/12 01:06:19;;;;;;;9.40;2.95;;;;;;;-4.40;62.57;102284.73;1885550;76;21073;-51
2023/02/12 01:08:50;;;;;;;5.10;2.80;;;;;;;-4.35;62.44;102281.97;1878220;76;21083;-49
2023/02/12 01:11:20;;;;;;;6.62;2.33;;;;;;;-4.35;62.53;102278.50;1873252;76;21043;-53
2023/02/12 01:13:49;;;;;;;17.52;3.15;;;;;;;-4.40;62.75;102269.30;1873290;76;21055;-51
2023/02/12 01:16:21;;;;;;;3.77;2.33;;;;;;;-4.47;62.95;102264.27;1873279;76;21514;-54
2023/02/12 01:18:52;;;;;;;10.53;3.65;;;;;;;-4.48;63.01;102262.52;1870388;76;21040;-56
2023/02/12 01:21:24;;;;;;;4.70;2.40;;;;;;;-4.43;62.73;102253.72;1872708;77;21467;-54
2023/02/12 01:23:53;;;;;;;4.35;2.65;;;;;;;-4.34;63.18;102249.42;1872263;76;21477;-54
2023/02/12 01:26:22;;;;;;;3.35;2.08;;;;;;;-4.34;63.18;102249.42;1872690;77;21038;-55
2023/02/12 01:28:54;;;;;;;4.37;1.90;;;;;;;-4.23;62.89;102252.48;1851667;76;21441;-55
2023/02/12 01:31:28;;;;;;;4.55;2.02;;;;;;;-4.17;62.80;102252.38;1841517;78;21124;-55
2023/02/12 01:33:58;;;;;;;6.03;2.83;;;;;;;-4.10;62.84;102254.38;1841596;78;21037;-55
2023/02/12 01:36:30;;;;;;;8.65;3.92;;;;;;;-4.02;62.81;102251.27;1841707;77;21046;-55
2023/02/12 01:39:01;;;;;;;2.90;1.50;;;;;;;-4.00;62.85;102244.13;1858489;77;21113;-50
2023/02/12 01:41:39;;;;;;;4.45;2.37;;;;;;;-3.98;62.98;102234.77;1872607;75;21092;-51
2023/02/12 01:44:16;;;;;;;5.05;2.33;;;;;;;-3.96;63.00;102243.44;1872879;76;21543;-52
2023/02/12 01:46:50;;;;;;;9.00;4.28;;;;;;;-3.91;62.90;102241.95;1872906;76;21112;-52
2023/02/12 01:49:22;;;;;;;8.88;4.03;;;;;;;-3.84;62.99;102246.08;1856421;77;21140;-50
2023/02/12 01:51:53;;;;;;;10.00;4.03;;;;;;;-3.84;63.26;102239.64;1841253;77;21089;-51
2023/02/12 01:54:24;;;;;;;7.33;3.58;;;;;;;-3.81;63.24;102235.92;1841742;78;21058;-52
2023/02/12 01:56:54;;;;;;;4.62;3.17;;;;;;;-3.74;63.25;102232.81;1858671;77;21056;-52
2023/02/12 01:59:23;;;;;;;7.15;1.98;;;;;;;-3.74;63.25;102232.81;1872803;76;21491;-50
2023/02/12 02:01:53;;;;;;;10.03;3.87;;;;;;;-3.74;63.32;102227.66;1872765;76;21577;-50
2023/02/12 02:04:27;;;;;;;9.10;2.92;;;;;;;-3.78;63.53;102230.89;1872802;77;21036;-52
2023/02/12 02:07:02;;;;;;;4.78;2.80;;;;;;;-3.79;63.52;102229.15;1860376;76;21141;-50
2023/02/12 02:09:33;;;;;;;6.33;3.15;;;;;;;-3.85;63.63;102216.89;1841545;77;21074;-51
2023/02/12 02:14:53;;;;;;;3.15;1.30;;;;;;;-3.83;64.00;102214.39;1841577;78;21058;-50
2023/02/12 02:17:39;;;;;;;1.15;0.88;;;;;;;-3.79;63.76;102200.42;1841515;78;21077;-51
2023/02/12 02:20:26;;;;;;;4.00;2.25;;;;;;;-3.79;63.76;102200.42;1841694;78;21054;-51
2023/02/12 02:23:16;;;;;;;2.77;1.30;;;;;;;-3.71;64.08;102196.05;1837860;78;21066;-50
2023/02/12 02:26:04;;;;;;;3.33;1.98;;;;;;;-3.60;64.04;102196.05;1841646;78;21101;-53
2023/02/12 02:28:59;;;;;;;3.65;2.00;;;;;;;-3.48;64.03;102209.45;1841634;77;21124;-53
2023/02/12 02:31:28;;;;;;;;;;;;;;;-3.39;64.21;102209.84;1844433;78;21543;-53
2023/02/12 02:33:59;;;;;;;3.40;2.05;;;;;;;-3.31;64.26;102207.16;1837547;78;20198;-54
2023/02/12 02:36:37;;;;;;;3.08;1.92;;;;;;;-3.24;64.42;102212.59;1841707;77;21116;-54
2023/02/12 02:39:17;;;;;;;3.72;2.12;;;;;;;-3.20;65.24;102211.47;1840682;78;21167;-53
2023/02/12 02:42:05;;;;;;;6.67;2.60;;;;;;;-3.14;64.99;102217.28;1841417;78;21117;-53
2023/02/12 02:44:40;;;;;;;10.78;3.27;;;;;;;-3.11;64.69;102210.98;1841676;78;21038;-53
2023/02/12 02:47:11;;;;;;;10.25;4.08;;;;;;;-3.09;64.51;102204.60;1839134;78;21098;-54
2023/02/12 02:49:45;;;;;;;9.10;4.42;;;;;;;-3.05;64.36;102197.45;1841511;78;21034;-53
2023/02/12 02:52:20;;;;;;;17.23;7.37;;;;;;;-3.07;64.47;102204.25;1841668;78;21116;-53
2023/02/12 02:54:54;;;;;;;12.95;3.12;;;;;;;-3.25;65.21;102183.34;1841598;78;21014;-53
2023/02/12 02:57:29;;;;;;;6.92;3.60;;;;;;;-3.24;65.48;102187.70;1841437;78;21050;-54
2023/02/12 03:00:02;;;;;;;12.95;3.65;;;;;;;-3.23;65.32;102185.57;1840606;78;21049;-53
2023/02/12 03:02:33;;;;;;;7.90;2.92;;;;;;;-3.19;65.24;102179.75;1841921;78;21531;-53
2023/02/12 03:05:10;;;;;;;27.80;3.58;;;;;;;-3.15;65.04;102176.48;1841368;78;21121;-52
2023/02/12 03:07:48;;;;;;;8.43;3.65;;;;;;;-3.08;64.94;102174.13;1841382;78;21504;-53
2023/02/12 03:10:22;;;;;;;6.75;3.27;;;;;;;-3.05;65.09;102166.53;1864742;75;21146;-53
2023/02/12 03:12:59;;;;;;;6.72;4.00;;;;;;;-3.04;65.16;102165.70;1872053;76;21511;-53
2023/02/12 03:15:43;;;;;;;11.53;4.40;;;;;;;-3.03;65.48;102166.18;1872697;76;21052;-53
2023/02/12 03:18:17;;;;;;;10.13;5.35;;;;;;;-3.11;66.25;102152.58;1848484;76;21098;-52
2023/02/12 03:20:49;;;;;;;6.50;3.62;;;;;;;-3.05;66.42;102154.94;1841525;77;21093;-53
2023/02/12 03:23:20;;;;;;;4.30;2.45;;;;;;;-3.06;66.19;102153.16;1841655;78;21049;-52
2023/02/12 03:26:01;;;;;;;4.25;2.35;;;;;;;-2.99;66.10;102158.65;1841517;76;21022;-53
2023/02/12 03:28:33;;;;;;;11.73;4.67;;;;;;;-3.00;65.93;102148.27;1864200;77;21548;-55
2023/02/12 03:31:17;;;;;;;7.45;4.25;;;;;;;-2.94;65.80;102158.81;1872736;77;21044;-57
2023/02/12 03:33:54;;;;;;;3.40;1.52;;;;;;;-2.98;65.78;102153.07;1872916;77;21522;-55
2023/02/12 03:36:42;;;;;;;6.20;3.62;;;;;;;-2.99;65.67;102157.36;1872638;77;21068;-55
2023/02/12 03:39:16;;;;;;;13.90;4.87;;;;;;;-3.01;65.66;102164.54;1846055;77;21500;-48
2023/02/12 03:41:51;;;;;;;5.37;3.47;;;;;;;-3.06;66.22;102152.78;1817856;78;21077;-54
2023/02/12 03:44:25;;;;;;;5.05;2.62;;;;;;;-3.09;66.42;102148.78;1841609;77;21062;-54
2023/02/12 03:46:59;;;;;;;10.10;3.62;;;;;;;-3.09;66.44;102147.91;1839746;77;21172;-54
2023/02/12 03:49:33;;;;;;;7.25;4.83;;;;;;;-3.11;67.09;102152.58;1866552;77;21092;-49
2023/02/12 03:52:04;;;;;;;14.03;4.40;;;;;;;-3.08;67.09;102144.50;1872902;77;21043;-50
2023/02/12 03:54:33;;;;;;;9.10;4.10;;;;;;;-3.04;67.90;102138.64;1872822;77;21032;-52
2023/02/12 03:57:14;;;;;;;2.85;1.20;;;;;;;-2.95;67.97;102136.03;1854167;77;21546;-48
2023/02/12 03:59:45;;;;;;;9.45;3.92;;;;;;;-2.86;67.72;102132.03;1841612;77;21566;-49
2023/02/12 04:02:15;;;;;;;10.72;4.80;;;;;;;-2.78;67.43;102134.52;1841643;78;21528;-46
2023/02/12 04:04:46;;;;;;;10.75;5.25;;;;;;;-2.70;67.30;102134.80;1841628;78;21058;-48
2023/02/12 04:07:16;;;;;;;8.33;3.08;;;;;;;-2.62;67.18;102128.22;1857531;77;21082;-46
2023/02/12 04:09:45;;;;;;;9.58;4.25;;;;;;;-2.57;67.14;102122.83;1877329;76;21529;-52
2023/02/12 04:12:22;;;;;;;6.83;2.70;;;;;;;-2.51;67.04;102120.45;1891453;76;21117;-47
2023/02/12 04:15:10;;;;;;;9.73;3.15;;;;;;;-2.47;66.97;102121.06;1861019;75;21043;-48
2023/02/12 04:17:43;;;;;;;6.55;4.00;;;;;;;-2.42;66.86;102113.05;1890207;76;21011;-50
2023/02/12 04:20:36;;;;;;;5.90;3.08;;;;;;;-2.38;66.78;102112.38;1887892;75;21157;-48
2023/02/12 04:23:30;;;;;;;20.52;5.78;;;;;;;-2.35;66.65;102117.61;1858615;75;21497;-52
2023/02/12 04:26:30;;;;;;;5.05;3.00;;;;;;;-2.31;66.55;102119.03;1891611;76;21450;-52
2023/02/12 04:29:27;;;;;;;7.58;4.00;;;;;;;-2.25;66.49;102112.78;1886438;75;21481;-53
2023/02/12 04:31:59;;;;;;;7.42;4.62;;;;;;;-2.21;66.48;102106.94;1891196;75;21545;-51
2023/02/12 04:34:31;;;;;;;9.43;3.33;;;;;;;-2.16;66.63;102111.81;1891279;75;21113;-52
2023/02/12 04:37:11;;;;;;;13.93;4.10;;;;;;;-2.18;67.26;102104.02;1891175;75;21019;-54
2023/02/12 04:39:41;;;;;;;9.00;3.95;;;;;;;-2.18;67.54;102105.73;1866548;75;21056;-55
2023/02/12 04:42:10;;;;;;;4.42;3.22;;;;;;;-2.18;67.45;102103.15;1859685;77;21471;-55
2023/02/12 04:44:41;;;;;;;11.45;4.12;;;;;;;-2.18;67.45;102107.89;1859876;77;21032;-56
2023/02/12 04:47:17;;;;;;;16.25;5.95;;;;;;;-2.12;67.44;102115.00;1859600;77;21119;-56
2023/02/12 04:49:45;;;;;;;12.63;5.20;;;;;;;-2.07;67.28;102119.88;1861796;76;21617;-56
2023/02/12 04:52:14;;;;;;;17.27;7.65;;;;;;;-2.01;67.15;102121.41;1859742;77;21585;-56
2023/02/12 04:54:43;;;;;;;6.05;3.33;;;;;;;-1.95;67.16;102122.90;1859683;77;21048;-56
2023/02/12 04:57:12;;;;;;;10.40;4.47;;;;;;;-1.89;67.11;102123.95;1880709;76;21117;-56
2023/02/12 04:59:40;;;;;;;11.38;5.95;;;;;;;-1.82;67.18;102128.50;1891365;75;21008;-56
2023/02/12 05:02:09;;;;;;;11.65;5.60;;;;;;;-1.77;67.21;102127.83;1891429;76;21015;-56
2023/02/12 05:04:37;;;;;;;6.05;3.00;;;;;;;-1.72;67.79;102121.93;1891432;76;21097;-56
2023/02/12 05:07:06;;;;;;;7.25;4.80;;;;;;;-1.68;67.99;102123.36;1876964;76;21051;-56
2023/02/12 05:09:35;;;;;;;10.78;4.45;;;;;;;-1.65;68.44;102125.19;1859700;77;21101;-56
2023/02/12 05:12:04;;;;;;;4.85;2.65;;;;;;;-1.59;68.93;102129.25;1842497;77;21091;-56
2023/02/12 05:14:32;;;;;;;11.28;4.15;;;;;;;-1.50;68.67;102129.98;1841673;78;21056;-56
2023/02/12 05:17:01;;;;;;;8.90;4.55;;;;;;;-1.42;68.38;102124.63;1842357;77;21136;-57
2023/02/12 05:19:30;;;;;;;14.78;5.90;;;;;;;-1.33;68.24;102121.47;1841514;78;21069;-57
2023/02/12 05:21:58;;;;;;;8.58;3.33;;;;;;;-1.26;68.79;102121.71;1841594;78;21232;-57
2023/02/12 05:24:27;;;;;;;8.40;3.20;;;;;;;-1.18;69.18;102125.44;1841556;78;21109;-49
2023/02/12 05:26:56;;;;;;;8.23;3.60;;;;;;;-1.10;69.10;102118.34;1857314;77;21055;-52
2023/02/12 05:29:24;;;;;;;8.90;3.58;;;;;;;-1.03;69.33;102116.41;1872614;77;21048;-50
2023/02/12 05:31:53;;;;;;;5.42;3.17;;;;;;;-0.98;69.33;102123.86;1872672;77;21048;-53
2023/02/12 05:34:21;;;;;;;4.10;1.70;;;;;;;-0.91;70.05;102124.52;1872667;77;21052;-51
2023/02/12 05:36:50;;;;;;;7.25;3.87;;;;;;;-0.81;69.98;102119.23;1862569;77;21058;-52
2023/02/12 05:39:19;;;;;;;6.80;3.25;;;;;;;-0.73;69.92;102122.03;1841407;78;21120;-52
2023/02/12 05:41:47;;;;;;;10.43;4.83;;;;;;;-0.68;69.70;102118.75;1841557;78;21126;-51
2023/02/12 05:44:16;;;;;;;1.95;1.67;;;;;;;-0.62;69.56;102112.45;1841538;78;21163;-51
2023/02/12 05:46:44;;;;;;;7.45;3.83;;;;;;;-0.54;69.49;102119.13;1843717;77;21038;-54
2023/02/12 05:49:13;;;;;;;7.40;3.40;;;;;;;-0.47;69.42;102103.38;1871692;77;21118;-53
2023/02/12 05:51:42;;;;;;;6.83;3.65;;;;;;;-0.39;69.31;102108.34;1872567;77;21126;-52
2023/02/12 05:54:11;;;;;;;9.25;3.02;;;;;;;-0.31;69.12;102109.44;1872623;77;21486;-53
2023/02/12 05:56:45;;;;;;;12.82;4.78;;;;;;;-0.22;68.92;102106.23;1871305;76;21044;-54
2023/02/12 05:59:17;;;;;;;21.80;11.03;;;;;;;-0.12;68.78;102103.05;1872628;77;21043;-53
2023/02/12 06:01:47;;;;;;;15.50;8.28;;;;;;;0.02;68.64;102101.23;1871686;76;21121;-50
2023/02/12 06:04:22;;;;;;;12.80;6.33;;;;;;;0.12;68.46;102098.06;1872661;77;21141;-53
2023/02/12 06:06:55;;;;;;;9.50;4.25;;;;;;;0.22;68.32;102103.91;1870975;77;21438;-53
2023/02/12 06:09:24;;;;;;;13.97;5.20;;;;;;;0.30;68.18;102104.13;1872882;77;21036;-51
2023/02/12 06:11:53;;;;;;;11.40;5.22;;;;;;;0.37;68.00;102104.32;1883237;76;22240;-54
2023/02/12 06:14:21;;;;;;;8.48;4.42;;;;;;;0.46;67.91;102101.09;1891364;76;21019;-56
2023/02/12 06:16:51;;;;;;;6.92;3.05;;;;;;;0.57;67.83;102096.14;1890611;76;21198;-55
2023/02/12 06:19:21;;;;;;;8.05;4.20;;;;;;;0.69;67.79;102100.33;1891443;76;21035;-54
2023/02/12 06:21:50;;;;;;;5.30;2.65;;;;;;;0.84;67.72;102095.05;1891367;76;21038;-53
2023/02/12 06:24:19;;;;;;;6.80;3.05;;;;;;;1.00;67.63;102106.62;1891551;76;21453;-54
2023/02/12 06:26:49;;;;;;;6.62;3.85;;;;;;;1.14;67.45;102094.44;1891432;76;21482;-57
2023/02/12 06:29:19;;;;;;;8.33;3.52;;;;;;;1.30;67.31;102095.61;1887791;76;21571;-53
2023/02/12 06:31:48;;;;;;;4.65;2.98;;;;;;;1.48;67.16;102096.42;1891387;76;21615;-57
2023/02/12 06:34:17;;;;;;;6.85;3.58;;;;;;;1.67;66.93;102093.76;1891532;76;21059;-56
2023/02/12 06:36:47;;;;;;;5.92;2.67;;;;;;;1.85;66.47;102089.34;1891667;76;21091;-56
2023/02/12 06:39:17;;;;;;;5.62;4.17;;;;;;;2.02;66.14;102078.39;1889650;76;21039;-56
2023/02/12 06:41:45;;;;;;;4.22;2.47;;;;;;;2.17;65.64;102081.67;1891391;76;21058;-56
2023/02/12 06:44:14;;;;;;;3.58;1.72;;;;;;;2.30;65.26;102080.59;1891546;76;21067;-50
2023/02/12 06:46:43;;;;;;;6.15;2.42;;;;;;;2.46;64.99;102073.06;1891453;76;21039;-48
2023/02/12 06:49:13;;;;;;;3.25;1.62;;;;;;;2.66;64.77;102070.34;1889706;76;21031;-50
2023/02/12 06:51:42;;;;;;;3.58;1.85;;;;;;;2.88;64.06;102066.76;1891510;76;21031;-50
2023/02/12 06:54:15;;;;;;;3.55;1.80;;;;;;;3.07;62.85;102057.03;1891420;76;21007;-49
2023/02/12 06:56:44;;;;;;;1.98;1.55;;;;;;;3.27;62.38;102064.23;1889846;76;21030;-50
2023/02/12 06:59:14;;;;;;;4.03;0.98;;;;;;;3.41;61.42;102063.97;1891468;76;21124;-51
2023/02/12 07:01:43;;;;;;;5.37;2.02;;;;;;;3.48;61.15;102064.46;1880732;76;21131;-54
2023/02/12 07:04:12;;;;;;;5.10;2.52;;;;;;;3.54;60.60;102066.29;1882464;76;21019;-54
2023/02/12 07:06:41;;;;;;;5.20;1.77;;;;;;;3.59;60.42;102063.28;1891575;76;21023;-53
2023/02/12 07:09:09;;;;;;;3.60;2.00;;;;;;;3.60;59.72;102058.53;1891310;76;21082;-53
2023/02/12 07:11:38;;;;;;;2.83;1.35;;;;;;;3.65;59.64;102052.05;1888458;76;21077;-54
2023/02/12 07:14:07;;;;;;;4.42;2.20;;;;;;;3.69;59.87;102042.14;1871580;77;21103;-51
2023/02/12 07:16:36;;;;;;;1.60;1.50;;;;;;;3.72;58.91;102043.89;1859693;77;21014;-51
2023/02/12 07:19:04;;;;;;;1.62;0.85;;;;;;;3.79;58.91;102037.88;1853458;76;21018;-51
2023/02/12 07:21:33;;;;;;;2.58;1.40;;;;;;;3.86;58.98;102034.05;1874858;76;21044;-51
2023/02/12 07:24:02;;;;;;;2.60;1.65;;;;;;;3.99;58.64;102017.23;1872736;77;21102;-49
2023/02/12 07:26:31;;;;;;;3.00;1.85;;;;;;;4.13;58.17;102016.92;1872691;77;21032;-50
2023/02/12 07:28:59;;;;;;;5.15;1.85;;;;;;;4.32;56.87;102009.23;1872779;76;21448;-47
2023/02/12 07:31:29;;;;;;;2.67;1.60;;;;;;;4.70;56.61;101992.94;1872347;77;21040;-54
2023/02/12 07:34:00;;;;;;;5.05;2.20;;;;;;;5.04;56.02;102008.34;1872746;77;21123;-55
2023/02/12 07:36:33;;;;;;;3.12;1.35;;;;;;;5.52;54.88;101987.59;1872888;75;21540;-57
2023/02/12 07:39:02;;;;;;;2.30;1.47;;;;;;;6.08;53.05;102001.16;1872923;77;21141;-55
2023/02/12 07:41:33;;;;;;;4.03;2.15;;;;;;;6.77;52.80;101994.96;1846520;77;21061;-55
2023/02/12 07:44:09;;;;;;;4.00;2.08;;;;;;;7.44;50.58;101987.67;1841563;78;21163;-55
2023/02/12 07:46:41;;;;;;;3.45;1.52;;;;;;;8.25;50.27;102003.23;1841449;78;21129;-55
2023/02/12 07:49:12;;;;;;;7.78;2.52;;;;;;;8.72;49.43;102000.58;1859832;77;21036;-54
2023/02/12 07:51:41;;;;;;;3.10;1.60;;;;;;;8.84;50.30;102002.22;1843878;76;21050;-54
2023/02/12 07:54:11;;;;;;;4.65;1.37;;;;;;;8.96;49.60;102002.50;1841772;78;21477;-55
2023/02/12 07:56:42;;;;;;;3.20;1.65;;;;;;;9.15;49.44;102006.65;1864473;77;21031;-54
2023/02/12 07:59:15;;;;;;;2.47;1.22;;;;;;;9.46;48.36;102007.53;1859568;77;21500;-55
2023/02/12 08:01:44;;;;;;;;;;;;;;;9.74;46.75;101992.66;1844396;78;21473;-54
2023/02/12 08:04:16;;;;;;;2.42;1.40;;;;;;;9.11;44.41;102001.02;1841714;78;20120;-54
2023/02/12 08:06:47;;;;;;;2.05;1.25;;;;;;;8.67;45.13;101994.53;1841631;78;21066;-49
2023/02/12 08:09:18;;;;;;;2.83;1.20;;;;;;;8.41;46.17;101989.08;1849173;77;21028;-60
2023/02/12 08:11:47;;;;;;;2.75;1.45;;;;;;;8.20;44.73;102001.08;1872654;77;21565;-60
2023/02/12 08:14:19;;;;;;;2.58;1.32;;;;;;;7.97;44.56;101994.28;1872625;75;21044;-60
2023/02/12 08:16:48;;;;;;;2.27;1.37;;;;;;;7.69;44.57;101996.22;1872708;77;21087;-53
2023/02/12 08:19:18;;;;;;;1.85;0.95;;;;;;;7.49;45.26;101980.66;1872027;76;21071;-51
2023/02/12 08:21:48;;;;;;;4.25;1.70;;;;;;;7.07;46.01;102019.30;1841524;78;21024;-51
2023/02/12 08:24:17;;;;;;;2.10;1.12;;;;;;;6.67;47.44;102014.17;1841595;78;21019;-56
2023/02/12 08:26:45;;;;;;;5.12;2.37;;;;;;;6.21;48.82;101999.41;1841584;78;21063;-56
2023/02/12 08:29:17;;;;;;;3.65;2.27;;;;;;;5.89;49.94;102015.08;1841660;77;21063;-57
2023/02/12 08:31:48;;;;;;;3.58;1.62;;;;;;;5.61;50.95;101995.45;1843950;77;21561;-50
2023/02/12 08:34:25;;;;;;;2.12;1.45;;;;;;;5.37;51.76;102025.86;1841605;78;21110;-52
2023/02/12 08:36:55;;;;;;;2.33;1.67;;;;;;;5.21;52.46;102018.39;1841560;78;21529;-51
2023/02/12 08:39:25;;;;;;;5.58;1.92;;;;;;;5.17;52.88;102008.81;1841571;78;21030;-53
2023/02/12 08:41:58;;;;;;;3.52;1.45;;;;;;;5.17;53.32;102014.48;1843218;77;21060;-51
2023/02/12 08:44:27;;;;;;;3.08;1.90;;;;;;;5.16;53.55;102004.45;1841839;78;21044;-51
2023/02/12 08:46:56;;;;;;;3.12;2.00;;;;;;;5.19;53.83;102002.30;1841540;78;21114;-52
2023/02/12 08:49:28;;;;;;;2.83;1.60;;;;;;;5.19;53.88;102013.61;1842469;77;21117;-52
2023/02/12 08:52:00;;;;;;;1.67;1.10;;;;;;;5.30;53.95;102003.64;1841528;78;21022;-52
2023/02/12 08:54:31;;;;;;;3.02;1.37;;;;;;;5.28;53.95;102003.63;1841535;78;21054;-50
2023/02/12 08:57:02;;;;;;;3.30;1.60;;;;;;;5.30;53.99;101997.98;1841576;78;21097;-54
2023/02/12 08:59:31;;;;;;;2.00;1.17;;;;;;;5.29;54.07;101980.55;1864694;77;21040;-53
2023/02/12 09:02:00;;;;;;;1.60;0.93;;;;;;;5.31;54.02;101984.48;1872654;77;21109;-53
2023/02/12 09:04:29;;;;;;;3.50;1.12;;;;;;;5.35;53.89;101967.97;1872632;77;21420;-53
2023/02/12 09:06:58;;;;;;;2.47;1.47;;;;;;;5.41;53.11;101962.75;1872878;76;21111;-50
2023/02/12 09:09:27;;;;;;;1.85;1.20;;;;;;;5.49;52.51;101962.31;1849894;77;21098;-56
2023/02/12 09:11:56;;;;;;;1.40;1.05;;;;;;;5.50;51.52;101957.98;1872468;76;21506;-55
2023/02/12 09:14:24;;;;;;;2.27;1.20;;;;;;;5.57;51.60;101958.40;1872572;75;21072;-55
2023/02/12 09:16:56;;;;;;;2.60;1.37;;;;;;;5.66;51.43;101944.03;1863898;77;21074;-53
2023/02/12 09:19:25;;;;;;;2.00;1.17;;;;;;;5.71;51.29;101954.06;1841537;78;21124;-46
2023/02/12 09:21:55;;;;;;;2.50;1.35;;;;;;;5.78;51.09;101947.11;1841657;78;21042;-49
2023/02/12 09:24:26;;;;;;;1.40;0.90;;;;;;;5.81;50.84;101937.97;1841735;78;21128;-55
2023/02/12 09:26:55;;;;;;;2.05;0.98;;;;;;;5.78;50.23;101943.19;1846267;77;21145;-56
2023/02/12 09:29:23;;;;;;;1.98;1.42;;;;;;;5.78;50.50;101937.52;1872699;77;21048;-54
2023/02/12 09:31:52;;;;;;;2.85;0.88;;;;;;;5.76;50.01;101932.73;1872701;77;21118;-55
2023/02/12 09:34:21;;;;;;;3.62;1.60;;;;;;;5.76;49.79;101928.81;1872586;77;21034;-56
2023/02/12 09:36:50;;;;;;;2.98;1.35;;;;;;;5.75;48.94;101920.52;1872469;77;21035;-57
2023/02/12 09:39:19;;;;;;;4.92;1.60;;;;;;;5.72;49.35;101929.69;1850353;77;21192;-49
2023/02/12 09:41:56;;;;;;;7.10;1.67;;;;;;;5.71;48.39;101906.16;1872555;77;21040;-50
2023/02/12 09:44:31;;;;;;;1.50;1.10;;;;;;;5.67;48.28;101915.74;1854512;77;21150;-50
2023/02/12 09:47:22;;;;;;;2.58;1.00;;;;;;;5.67;48.23;101928.81;1833965;77;21048;-50
2023/02/12 09:50:15;;;;;;;2.55;1.20;;;;;;;5.80;48.59;101920.53;1841205;76;21075;-50
2023/02/12 09:52:44;;;;;;;1.42;1.05;;;;;;;5.96;48.41;101930.59;1842296;77;21044;-49
2023/02/12 09:55:16;;;;;;;2.37;1.07;;;;;;;6.13;48.78;101922.72;1841749;77;21016;-49
2023/02/12 09:57:46;;;;;;;1.57;1.25;;;;;;;6.21;48.53;101917.47;1872430;77;21126;-50
2023/02/12 10:00:23;;;;;;;1.35;0.90;;;;;;;6.25;48.55;101913.52;1872717;77;21106;-50
2023/02/12 10:02:53;;;;;;;1.90;1.20;;;;;;;6.28;48.69;101921.37;1872535;77;21495;-49
2023/02/12 10:05:33;;;;;;;5.03;1.30;;;;;;;6.26;49.09;101914.41;1872696;76;21012;-52
2023/02/12 10:08:25;;;;;;;2.80;1.60;;;;;;;6.24;49.38;101909.62;1852469;76;21070;-52
2023/02/12 10:10:57;;;;;;;6.83;1.60;;;;;;;6.23;49.28;101907.87;1872891;76;21052;-54
2023/02/12 10:13:28;;;;;;;3.50;1.50;;;;;;;6.34;49.33;101900.86;1872842;77;21028;-53
2023/02/12 10:16:33;;;;;;;2.98;1.37;;;;;;;6.63;49.12;101894.67;1872004;76;21043;-53
2023/02/12 10:19:17;;;;;;;2.17;1.52;;;;;;;6.82;48.16;101891.52;1872833;75;21072;-56
2023/02/12 10:21:49;;;;;;;;;;;;;;;6.66;47.96;101885.47;1875494;76;21036;-52
2023/02/12 10:24:39;;;;;;;2.12;0.80;;;;;;;6.45;47.79;101893.84;1872278;76;20145;-49
2023/02/12 10:27:20;;;;;;;1.42;0.88;;;;;;;6.29;48.26;101879.07;1872596;77;21099;-50
2023/02/12 10:29:50;;;;;;;2.47;1.40;;;;;;;6.24;48.74;101883.47;1872749;76;21150;-54
2023/02/12 10:32:27;;;;;;;1.60;1.12;;;;;;;6.26;48.73;101882.58;1865033;77;21030;-52
2023/02/12 10:34:57;;;;;;;4.40;1.37;;;;;;;6.29;49.04;101881.69;1841132;77;21070;-55
2023/02/12 10:37:41;;;;;;;1.90;1.12;;;;;;;6.28;48.85;101870.36;1841522;78;21438;-53
2023/02/12 10:40:27;;;;;;;1.85;1.07;;;;;;;6.21;48.32;101870.39;1841825;78;21826;-47
2023/02/12 10:43:00;;;;;;;1.80;1.00;;;;;;;6.10;48.48;101885.66;1844769;77;21050;-47
2023/02/12 10:45:29;;;;;;;3.72;1.57;;;;;;;6.11;48.82;101892.64;1872519;76;21122;-50
2023/02/12 10:48:10;;;;;;;3.62;1.37;;;;;;;6.06;48.92;101884.37;1872588;76;21526;-50
2023/02/12 10:50:53;;;;;;;3.87;1.45;;;;;;;5.98;48.88;101894.86;1872698;77;21487;-49
2023/02/12 10:53:27;;;;;;;2.58;1.47;;;;;;;5.92;49.17;101886.97;1868073;76;21082;-49
2023/02/12 10:56:17;;;;;;;2.12;1.32;;;;;;;5.90;49.48;101890.02;1865823;76;21056;-51
2023/02/12 10:59:00;;;;;;;4.70;1.67;;;;;;;5.92;48.96;101862.12;1872545;76;21044;-59
2023/02/12 11:01:41;;;;;;;3.35;2.05;;;;;;;5.92;48.72;101834.68;1872940;76;21024;-55
2023/02/12 11:04:24;;;;;;;2.55;1.20;;;;;;;6.05;48.37;101862.59;1847084;77;21109;-54
2023/02/12 11:07:06;;;;;;;2.98;1.15;;;;;;;6.24;48.43;101859.93;1841741;78;21082;-49
2023/02/12 11:09:45;;;;;;;3.22;1.55;;;;;;;6.34;47.90;101859.01;1843096;77;21471;-51
2023/02/12 11:12:39;;;;;;;5.37;1.20;;;;;;;6.50;47.55;101844.98;1853075;77;21048;-50
2023/02/12 11:15:19;;;;;;;1.72;0.80;;;;;;;6.62;47.68;101858.89;1879151;76;21055;-47
2023/02/12 11:18:00;;;;;;;3.27;1.10;;;;;;;6.74;47.49;101858.84;1891470;76;21117;-49
2023/02/12 11:20:32;;;;;;;3.35;1.40;;;;;;;6.85;47.48;101850.48;1891402;76;21023;-46
2023/02/12 11:23:05;;;;;;;2.67;1.27;;;;;;;6.81;46.37;101833.52;1884311;75;21166;-48
2023/02/12 11:25:36;;;;;;;3.62;1.22;;;;;;;6.83;46.52;101840.47;1859815;76;21044;-48
2023/02/12 11:28:17;;;;;;;4.10;1.40;;;;;;;6.95;46.66;101834.27;1859686;77;21049;-51
2023/02/12 11:31:00;;;;;;;2.87;1.00;;;;;;;7.00;46.88;101854.76;1859819;77;21474;-47
2023/02/12 11:33:34;;;;;;;3.05;1.72;;;;;;;7.05;47.21;101856.05;1878589;76;21117;-45
2023/02/12 11:36:09;;;;;;;2.52;1.15;;;;;;;6.98;47.38;101860.45;1891558;75;21012;-50
2023/02/12 11:38:41;;;;;;;1.67;0.80;;;;;;;6.85;47.44;101854.41;1891414;75;21063;-50
2023/02/12 11:41:18;;;;;;;2.87;1.07;;;;;;;6.63;46.50;101850.18;1890789;75;21043;-48
2023/02/12 11:43:47;;;;;;;3.45;1.10;;;;;;;6.44;46.42;101847.64;1887679;75;21560;-47
2023/02/12 11:46:24;;;;;;;4.53;1.40;;;;;;;6.25;46.36;101822.42;1890703;76;21150;-45
2023/02/12 11:48:54;;;;;;;4.53;1.32;;;;;;;6.22;46.51;101805.45;1859791;77;21519;-46
2023/02/12 11:51:28;;;;;;;1.37;1.00;;;;;;;6.16;46.76;101832.05;1828971;77;21035;-53
2023/02/12 11:53:59;;;;;;;3.17;1.40;;;;;;;6.15;46.71;101834.22;1861900;76;21060;-46
2023/02/12 11:58:47;;;;;;;2.00;0.98;;;;;;;6.19;46.60;101805.87;1973543;73;25864;-45
2023/02/12 12:01:31;;;;;;;1.90;0.98;;;;;;;6.18;47.04;101822.91;1948983;73;21027;-44